Time;durP1;ratioP1;P1;durP2;ratioP2;P2;SDS_P1;SDS_P2;PMS_P1;PMS_P2;Temp;Humidity;BMP_temperature;BMP_pressure;BME280_temperature;BME280_humidity;BME280_pressure;Samples;Min_cycle;Max_cycle;Signal;HPM_P1;HPM_P2
2022/07/06 00:01:00;;;;;;;2.97;0.90;;;14.50;38.30;;;;;;5069192;28;20169;-61
2022/07/06 00:03:25;;;;;;;2.13;0.73;;;14.50;38.40;;;;;;5108675;28;20058;-61
2022/07/06 00:05:51;;;;;;;1.73;0.70;;;14.50;39.20;;;;;;5070635;28;20029;-61
2022/07/06 00:08:16;;;;;;;0.43;0.30;;;14.40;38.90;;;;;;5108705;28;20067;-61
2022/07/06 00:10:42;;;;;;;0.80;0.50;;;14.40;38.40;;;;;;5071546;28;20033;-60
2022/07/06 00:13:07;;;;;;;3.40;0.60;;;14.40;39.40;;;;;;5106969;28;20509;-61
2022/07/06 00:15:32;;;;;;;1.27;0.70;;;14.40;39.70;;;;;;5065275;28;20033;-61
2022/07/06 00:17:58;;;;;;;1.23;0.60;;;14.40;41.70;;;;;;5108347;28;20024;-61
2022/07/06 00:20:23;;;;;;;1.88;1.10;;;14.30;42.80;;;;;;5073908;28;20553;-61
2022/07/06 00:22:49;;;;;;;1.23;0.70;;;14.30;45.50;;;;;;5108401;28;20027;-61
2022/07/06 00:25:15;;;;;;;0.63;0.63;;;14.30;45.70;;;;;;5074544;28;20035;-61
2022/07/06 00:27:41;;;;;;;0.80;0.45;;;14.30;43.70;;;;;;5091308;28;20114;-61
2022/07/06 00:30:07;;;;;;;0.73;0.60;;;14.30;43.40;;;;;;5082707;28;20114;-61
2022/07/06 00:32:32;;;;;;;1.70;1.02;;;14.30;44.30;;;;;;5108289;28;20494;-61
2022/07/06 00:34:58;;;;;;;0.70;0.60;;;14.30;45.20;;;;;;5098251;28;20052;-59
2022/07/06 00:37:23;;;;;;;1.10;0.75;;;14.30;45.70;;;;;;5089657;28;20111;-58
2022/07/06 00:39:49;;;;;;;1.77;0.50;;;14.30;45.40;;;;;;5106492;28;20054;-61
2022/07/06 00:42:14;;;;;;;1.85;0.60;;;14.30;44.80;;;;;;5089830;28;20055;-60
2022/07/06 00:44:41;;;;;;;2.13;0.70;;;14.30;45.80;;;;;;5095047;28;20483;-59
2022/07/06 00:47:07;;;;;;;0.73;0.40;;;14.30;44.70;;;;;;5072854;28;20037;-59
2022/07/06 00:52:17;;;;;;;1.50;0.60;;;14.30;45.50;;;;;;5067437;28;20562;-59
2022/07/06 00:54:43;;;;;;;3.30;0.52;;;14.40;45.40;;;;;;5107766;28;20043;-59
2022/07/06 00:57:10;;;;;;;1.00;0.70;;;14.30;45.20;;;;;;5080431;28;20027;-61
2022/07/06 00:59:35;;;;;;;2.95;0.65;;;14.40;45.80;;;;;;5108699;28;20027;-59
2022/07/06 01:02:01;;;;;;;1.35;0.60;;;14.40;45.40;;;;;;5090310;28;20024;-60
2022/07/06 01:04:26;;;;;;;1.05;0.45;;;14.40;46.00;;;;;;5109361;28;20027;-60
2022/07/06 01:06:53;;;;;;;1.45;0.63;;;14.40;46.40;;;;;;5089466;28;20047;-60
2022/07/06 01:09:18;;;;;;;0.52;0.50;;;14.40;46.40;;;;;;5109201;28;20099;-61
2022/07/06 01:11:44;;;;;;;0.65;0.40;;;14.30;46.60;;;;;;5088462;28;20108;-60
2022/07/06 01:14:10;;;;;;;0.63;0.57;;;14.30;48.00;;;;;;5091410;28;20039;-60
2022/07/06 01:16:37;;;;;;;1.38;0.80;;;14.30;49.30;;;;;;5106107;28;20028;-59
2022/07/06 01:19:02;;;;;;;0.93;0.60;;;14.20;50.60;;;;;;5109316;28;20480;-60
2022/07/06 01:21:27;;;;;;;3.95;0.60;;;14.20;50.20;;;;;;5089143;28;20035;-60
2022/07/06 01:23:53;;;;;;;2.15;0.80;;;14.10;49.80;;;;;;5067522;28;20056;-60
2022/07/06 01:26:20;;;;;;;1.95;0.50;;;14.10;49.80;;;;;;5102183;28;20036;-61
2022/07/06 01:28:50;;;;;;;0.60;0.60;;;14.00;50.60;;;;;;5069692;28;20405;-59
2022/07/06 01:31:21;;;;;;;1.15;0.73;;;14.10;50.40;;;;;;5107609;28;20055;-60
2022/07/06 01:33:48;;;;;;;0.77;0.60;;;14.00;50.40;;;;;;5068660;28;20047;-59
2022/07/06 01:36:13;;;;;;;1.67;0.60;;;13.90;50.80;;;;;;5107665;28;20042;-60
2022/07/06 01:38:50;;;;;;;1.58;0.40;;;13.90;51.00;;;;;;5070070;28;20424;-59
2022/07/06 01:41:17;;;;;;;1.83;0.75;;;13.90;52.00;;;;;;5099678;28;20090;-60
2022/07/06 01:43:43;;;;;;;1.40;0.63;;;13.90;53.10;;;;;;5070564;28;20066;-60
2022/07/06 01:46:09;;;;;;;1.27;0.60;;;13.80;52.90;;;;;;5107302;28;20122;-60
2022/07/06 01:48:34;;;;;;;2.33;0.73;;;13.80;53.20;;;;;;5070301;28;20032;-60
2022/07/06 01:51:00;;;;;;;0.70;0.55;;;13.70;53.40;;;;;;5107338;28;20032;-61
2022/07/06 01:53:26;;;;;;;2.92;0.60;;;13.70;53.60;;;;;;5071539;28;20033;-60
2022/07/06 01:55:51;;;;;;;2.70;0.65;;;13.70;53.90;;;;;;5107267;28;20032;-59
2022/07/06 01:58:16;;;;;;;0.82;0.60;;;13.60;54.70;;;;;;5072723;28;20346;-60
2022/07/06 02:00:42;;;;;;;0.63;0.60;;;13.60;54.80;;;;;;5107308;28;20027;-59
2022/07/06 02:03:08;;;;;;;1.00;0.50;;;13.50;55.10;;;;;;5072744;28;20028;-60
2022/07/06 02:05:33;;;;;;;1.20;0.57;;;13.50;55.70;;;;;;5107280;28;20103;-60
2022/07/06 02:07:59;;;;;;;1.15;0.60;;;13.40;56.30;;;;;;5074936;28;20212;-60
2022/07/06 02:10:24;;;;;;;1.50;0.45;;;13.40;58.20;;;;;;5107760;28;20116;-60
2022/07/06 02:12:50;;;;;;;2.95;0.80;;;13.30;59.20;;;;;;5100945;28;20502;-59
2022/07/06 02:15:15;;;;;;;2.00;0.70;;;13.30;61.50;;;;;;5084920;28;20052;-59
2022/07/06 02:17:41;;;;;;;2.53;0.60;;;13.20;59.80;;;;;;5109040;28;20518;-59
2022/07/06 02:20:07;;;;;;;2.65;0.55;;;13.10;62.20;;;;;;5092410;28;20035;-60
2022/07/06 02:22:32;;;;;;;2.15;0.80;;;13.10;63.10;;;;;;5109470;28;20031;-60
2022/07/06 02:24:58;;;;;;;0.82;0.60;;;13.10;63.10;;;;;;5092156;28;20553;-59
2022/07/06 02:27:24;;;;;;;1.42;0.60;;;13.00;63.50;;;;;;5101690;28;20047;-60
2022/07/06 02:29:50;;;;;;;0.80;0.68;;;13.00;64.00;;;;;;5105521;28;20063;-59
2022/07/06 02:32:16;;;;;;;1.02;0.60;;;13.00;63.30;;;;;;5095326;28;20070;-59
2022/07/06 02:34:42;;;;;;;1.10;0.60;;;13.00;64.60;;;;;;5111724;28;20479;-59
2022/07/06 02:37:07;;;;;;;1.35;0.80;;;13.00;64.50;;;;;;5094507;28;20031;-59
2022/07/06 02:39:33;;;;;;;1.92;0.57;;;13.00;65.00;;;;;;5111771;28;20032;-59
2022/07/06 02:41:58;;;;;;;0.65;0.60;;;13.10;65.40;;;;;;5093149;28;20042;-59
2022/07/06 02:44:23;;;;;;;1.45;0.75;;;13.10;65.10;;;;;;5111734;28;20027;-60
2022/07/06 02:46:49;;;;;;;0.80;0.60;;;13.20;65.20;;;;;;5091776;28;20495;-60
2022/07/06 02:49:14;;;;;;;2.28;0.70;;;13.20;66.30;;;;;;5111900;28;20027;-59
2022/07/06 02:51:40;;;;;;;2.67;0.73;;;13.30;67.00;;;;;;5090495;28;20032;-59
2022/07/06 02:54:05;;;;;;;0.82;0.60;;;13.40;65.20;;;;;;5111567;28;20027;-60
2022/07/06 02:56:31;;;;;;;2.90;0.80;;;13.50;65.80;;;;;;5091635;28;20042;-60
2022/07/06 02:58:56;;;;;;;1.27;0.65;;;13.50;67.00;;;;;;5109008;28;20038;-59
2022/07/06 03:01:22;;;;;;;1.70;0.70;;;13.60;66.40;;;;;;5091593;28;20028;-60
2022/07/06 03:03:47;;;;;;;1.95;0.90;;;13.70;66.90;;;;;;5071148;28;20083;-59
2022/07/06 03:06:13;;;;;;;0.70;0.60;;;13.80;69.20;;;;;;5110096;28;20412;-59
2022/07/06 03:08:38;;;;;;;1.83;0.90;;;13.90;69.00;;;;;;5072175;28;20037;-58
2022/07/06 03:11:04;;;;;;;0.90;0.70;;;13.90;72.30;;;;;;5109902;28;20035;-60
2022/07/06 03:13:29;;;;;;;2.72;0.90;;;14.00;73.10;;;;;;5078499;28;20131;-60
2022/07/06 03:15:55;;;;;;;4.72;0.90;;;14.10;73.50;;;;;;5111130;28;20145;-63
2022/07/06 03:18:21;;;;;;;2.13;1.40;;;14.20;73.30;;;;;;5074332;28;20040;-60
2022/07/06 03:20:46;;;;;;;0.93;0.63;;;14.20;71.10;;;;;;5109495;28;20020;-59
2022/07/06 03:23:11;;;;;;;3.15;0.88;;;14.30;71.30;;;;;;5074751;28;20029;-60
2022/07/06 03:25:37;;;;;;;1.25;0.63;;;14.30;72.10;;;;;;5109568;28;20506;-60
2022/07/06 03:28:03;;;;;;;3.00;0.90;;;14.30;70.50;;;;;;5083799;28;20040;-60
2022/07/06 03:30:28;;;;;;;3.38;0.80;;;14.40;72.70;;;;;;5109420;28;20139;-60
2022/07/06 03:32:54;;;;;;;1.40;0.73;;;14.40;73.20;;;;;;5077875;28;20035;-59
2022/07/06 03:35:19;;;;;;;1.48;0.60;;;14.40;72.30;;;;;;5105963;28;20039;-59
2022/07/06 03:37:45;;;;;;;2.50;0.63;;;14.40;74.20;;;;;;5088199;28;20036;-59
2022/07/06 03:40:11;;;;;;;0.55;0.55;;;14.40;73.40;;;;;;5098383;28;20019;-60
2022/07/06 03:42:37;;;;;;;1.15;0.60;;;14.40;75.00;;;;;;5091005;28;20028;-61
2022/07/06 03:45:04;;;;;;;2.80;0.80;;;14.40;75.60;;;;;;5097206;28;20034;-60
2022/07/06 03:47:29;;;;;;;0.98;0.70;;;14.40;75.30;;;;;;5091079;28;20032;-61
2022/07/06 03:49:55;;;;;;;3.63;0.80;;;14.40;75.10;;;;;;5108049;28;20046;-61
2022/07/06 03:52:20;;;;;;;2.78;1.10;;;14.50;79.80;;;;;;5091009;28;20032;-60
2022/07/06 03:54:46;;;;;;;1.80;0.80;;;14.40;79.40;;;;;;5107753;28;20104;-60
2022/07/06 03:57:13;;;;;;;1.05;0.70;;;14.40;79.40;;;;;;5110551;28;20067;-60
2022/07/06 03:59:41;;;;;;;4.00;1.35;;;14.50;81.80;;;;;;5093637;28;20028;-60
2022/07/06 04:02:06;;;;;;;1.08;0.70;;;14.40;84.00;;;;;;5110594;28;20027;-60
2022/07/06 04:04:34;;;;;;;2.67;0.60;;;14.40;85.00;;;;;;5093258;28;20029;-60
2022/07/06 04:07:00;;;;;;;2.20;0.60;;;14.40;85.10;;;;;;5110309;28;20029;-60
2022/07/06 04:09:26;;;;;;;0.50;0.50;;;14.30;87.10;;;;;;5092255;28;20024;-60
2022/07/06 04:11:52;;;;;;;1.45;0.70;;;14.40;86.30;;;;;;5109960;28;20031;-60
2022/07/06 04:14:17;;;;;;;2.00;0.90;;;14.40;87.00;;;;;;5087164;28;20035;-60
2022/07/06 04:16:43;;;;;;;1.33;0.77;;;14.40;87.30;;;;;;5108703;28;20032;-59
2022/07/06 04:19:08;;;;;;;2.10;0.63;;;14.50;89.10;;;;;;5089653;28;20399;-61
2022/07/06 04:21:34;;;;;;;1.15;0.60;;;14.60;90.40;;;;;;5110133;28;20019;-61
2022/07/06 04:24:00;;;;;;;0.75;0.65;;;14.60;90.00;;;;;;5088246;28;20047;-59
2022/07/06 04:26:26;;;;;;;3.50;1.08;;;14.70;88.60;;;;;;5103980;28;20099;-61
2022/07/06 04:28:51;;;;;;;2.45;0.93;;;14.70;90.20;;;;;;5109339;28;20035;-61
2022/07/06 04:31:17;;;;;;;0.90;0.70;;;14.80;91.00;;;;;;5107639;28;20053;-61
2022/07/06 04:33:42;;;;;;;1.00;0.90;;;14.90;90.70;;;;;;5088978;28;20024;-61
2022/07/06 04:36:09;;;;;;;2.42;0.90;;;15.00;90.60;;;;;;5070202;28;20033;-62
2022/07/06 04:38:35;;;;;;;3.80;0.90;;;15.10;90.50;;;;;;5108797;28;20076;-61
2022/07/06 04:41:00;;;;;;;1.60;0.82;;;15.20;90.90;;;;;;5076616;28;20441;-61
2022/07/06 04:43:26;;;;;;;2.67;0.80;;;15.30;91.00;;;;;;5085420;28;20028;-62
2022/07/06 04:45:51;;;;;;;1.00;0.80;;;15.40;90.40;;;;;;5102528;28;20032;-61
2022/07/06 04:48:17;;;;;;;1.70;0.80;;;15.50;89.40;;;;;;5096246;28;20123;-61
2022/07/06 04:50:42;;;;;;;1.63;0.90;;;15.60;89.90;;;;;;5089793;28;20058;-44
2022/07/06 04:53:08;;;;;;;1.60;1.20;;;15.80;89.10;;;;;;5107182;28;20517;-48
2022/07/06 04:55:33;;;;;;;1.00;0.90;;;16.00;87.70;;;;;;5087564;28;20552;-48
2022/07/06 04:57:59;;;;;;;0.90;0.70;;;16.30;85.30;;;;;;5093092;28;20048;-45
2022/07/06 05:00:24;;;;;;;1.80;1.30;;;16.60;82.90;;;;;;5109353;28;20476;-44
2022/07/06 05:02:50;;;;;;;1.83;0.82;;;17.30;80.10;;;;;;5092469;28;20020;-45
2022/07/06 05:05:16;;;;;;;1.90;1.00;;;18.10;73.80;;;;;;5109342;28;20099;-45
2022/07/06 05:07:41;;;;;;;1.98;0.90;;;19.10;67.90;;;;;;5091123;28;20043;-46
2022/07/06 05:10:08;;;;;;;1.83;1.20;;;19.80;63.30;;;;;;5109293;28;20211;-45
2022/07/06 05:12:34;;;;;;;1.40;0.80;;;20.30;59.40;;;;;;5090165;28;20495;-44
2022/07/06 05:15:00;;;;;;;3.92;1.05;;;20.20;57.20;;;;;;5102005;28;20035;-44
2022/07/06 05:17:25;;;;;;;2.67;0.98;;;21.20;53.10;;;;;;5088594;28;20565;-45
2022/07/06 05:19:51;;;;;;;3.35;0.80;;;21.00;51.50;;;;;;5109110;28;20024;-44
2022/07/06 05:22:17;;;;;;;0.95;0.65;;;21.00;49.80;;;;;;5087596;28;20028;-46
2022/07/06 05:24:42;;;;;;;1.38;0.93;;;22.00;46.60;;;;;;5109166;28;20510;-46
2022/07/06 05:27:08;;;;;;;1.98;0.68;;;23.20;42.60;;;;;;5101154;28;20020;-45
2022/07/06 05:29:33;;;;;;;3.67;1.35;;;24.40;38.40;;;;;;5102757;28;20586;-45
2022/07/06 05:31:59;;;;;;;4.07;1.00;;;25.40;33.20;;;;;;5088676;28;20588;-45
2022/07/06 05:34:24;;;;;;;2.42;1.00;;;26.40;28.50;;;;;;5069550;28;20028;-45
2022/07/06 05:36:50;;;;;;;4.53;0.60;;;27.10;25.70;;;;;;5107400;28;20129;-45
2022/07/06 05:39:19;;;;;;;1.17;0.70;;;27.70;23.30;;;;;;5070243;28;20412;-45
2022/07/06 05:41:46;;;;;;;4.20;1.15;;;28.60;21.30;;;;;;5080831;28;20055;-50
2022/07/06 05:44:11;;;;;;;2.00;1.00;;;29.20;18.30;;;;;;5070180;28;20021;-47
2022/07/06 05:46:37;;;;;;;1.90;0.90;;;29.70;16.50;;;;;;5110178;28;20499;-47
2022/07/06 05:51:46;;;;;;;2.33;0.57;;;30.40;11.90;;;;;;5072212;28;20047;-44
2022/07/06 05:54:12;;;;;;;2.30;1.00;;;31.10;10.80;;;;;;5076114;28;20032;-45
2022/07/06 05:56:37;;;;;;;3.15;1.00;;;31.40;8.60;;;;;;5111394;28;20438;-46
2022/07/06 05:59:03;;;;;;;3.40;0.63;;;31.80;8.00;;;;;;5075630;28;20044;-47
2022/07/06 06:01:28;;;;;;;2.08;0.70;;;32.20;5.50;;;;;;5111359;28;20028;-44
2022/07/06 06:03:54;;;;;;;0.77;0.60;;;32.60;5.50;;;;;;5076709;28;20037;-46
2022/07/06 06:06:19;;;;;;;2.20;0.73;;;32.70;2.30;;;;;;5111103;28;20026;-44
2022/07/06 06:08:45;;;;;;;1.35;0.60;;;32.90;3.20;;;;;;5077888;28;20025;-44
2022/07/06 06:11:10;;;;;;;1.10;0.50;;;33.30;2.80;;;;;;5111082;28;20032;-44
2022/07/06 06:13:36;;;;;;;2.10;0.73;;;33.70;2.00;;;;;;5082557;28;20042;-44
2022/07/06 06:16:01;;;;;;;2.42;0.73;;;34.10;1.30;;;;;;5112320;28;20619;-44
2022/07/06 06:18:27;;;;;;;1.73;0.70;;;34.60;1.00;;;;;;5100798;28;20039;-45
2022/07/06 06:20:53;;;;;;;2.30;0.70;;;35.00;1.00;;;;;;5092395;28;20024;-47
2022/07/06 06:23:18;;;;;;;2.55;0.68;;;35.00;1.00;;;;;;5109100;28;20032;-50
2022/07/06 06:25:44;;;;;;;0.93;0.63;;;35.30;1.00;;;;;;5092550;28;20032;-46
2022/07/06 06:28:10;;;;;;;1.52;0.80;;;35.40;1.00;;;;;;5097936;28;20376;-48
2022/07/06 06:30:37;;;;;;;1.80;0.80;;;35.70;1.00;;;;;;5091947;28;20045;-47
2022/07/06 06:33:16;;;;;;;1.05;0.50;;;36.00;1.00;;;;;;5109486;28;20443;-51
2022/07/06 06:35:50;;;;;;;2.58;0.70;;;36.20;1.00;;;;;;5071313;28;20401;-46
2022/07/06 06:38:17;;;;;;;1.58;0.60;;;36.30;1.00;;;;;;5086652;28;20043;-44
2022/07/06 06:40:43;;;;;;;1.05;0.70;;;36.40;1.00;;;;;;5091338;28;20027;-51
2022/07/06 06:43:09;;;;;;;1.88;0.80;;;36.90;1.00;;;;;;5097070;28;20031;-52
2022/07/06 06:45:35;;;;;;;1.35;0.60;;;37.20;1.00;;;;;;5091599;28;20487;-48
2022/07/06 06:48:00;;;;;;;3.58;1.05;;;37.50;1.00;;;;;;5108736;28;20038;-44
2022/07/06 06:50:26;;;;;;;2.20;0.65;;;37.60;1.00;;;;;;5111719;28;20039;-46
2022/07/06 06:52:52;;;;;;;1.88;0.63;;;37.90;1.00;;;;;;5094995;28;20092;-47
2022/07/06 06:55:17;;;;;;;1.85;0.73;;;38.20;1.00;;;;;;5111317;28;20028;-52
2022/07/06 06:57:44;;;;;;;2.67;0.90;;;38.50;1.00;;;;;;5092282;28;20376;-48
2022/07/06 07:00:10;;;;;;;1.08;0.60;;;38.70;1.00;;;;;;5111469;28;20084;-46
2022/07/06 07:02:36;;;;;;;1.27;0.75;;;38.90;1.00;;;;;;5092500;27;20019;-46
2022/07/06 07:05:03;;;;;;;0.85;0.63;;;39.10;1.00;;;;;;5111167;28;20096;-48
2022/07/06 07:07:28;;;;;;;2.38;0.77;;;39.60;1.00;;;;;;5091215;28;20373;-46
2022/07/06 07:09:54;;;;;;;0.80;0.57;;;40.10;1.00;;;;;;5111139;28;20103;-52
2022/07/06 07:12:19;;;;;;;4.18;1.00;;;40.20;1.00;;;;;;5090162;28;20062;-49
2022/07/06 07:14:45;;;;;;;0.60;0.40;;;40.40;1.00;;;;;;5107159;28;20077;-45
2022/07/06 07:17:11;;;;;;;2.05;0.68;;;40.80;1.00;;;;;;5091086;28;20081;-45
2022/07/06 07:19:36;;;;;;;2.75;0.70;;;41.00;1.00;;;;;;5108885;28;20122;-46
2022/07/06 07:22:02;;;;;;;1.77;0.80;;;39.70;1.00;;;;;;5091309;28;20144;-46
2022/07/06 07:24:28;;;;;;;0.80;0.50;;;38.40;1.00;;;;;;5070453;28;20105;-48
2022/07/06 07:26:53;;;;;;;2.92;0.70;;;37.90;1.00;;;;;;5099117;28;20032;-48
2022/07/06 07:29:19;;;;;;;4.35;0.82;;;38.40;1.00;;;;;;5076493;28;20059;-52
2022/07/06 07:31:44;;;;;;;2.05;0.82;;;39.00;1.00;;;;;;5110790;28;20076;-46
2022/07/06 07:34:10;;;;;;;0.88;0.50;;;38.30;1.00;;;;;;5072822;28;20036;-46
2022/07/06 07:36:36;;;;;;;2.92;0.68;;;38.00;1.00;;;;;;5109355;28;20458;-45
2022/07/06 07:39:02;;;;;;;1.27;0.63;;;37.20;1.00;;;;;;5073675;28;20025;-51
2022/07/06 07:41:28;;;;;;;2.20;0.75;;;36.90;1.00;;;;;;5099126;28;20047;-52
2022/07/06 07:43:53;;;;;;;2.15;0.63;;;37.20;1.00;;;;;;5079927;28;20047;-51
2022/07/06 07:46:19;;;;;;;1.85;0.75;;;37.90;1.00;;;;;;5108854;28;20515;-50
2022/07/06 07:48:44;;;;;;;1.48;0.73;;;38.40;1.00;;;;;;5076038;28;20145;-46
2022/07/06 07:51:10;;;;;;;1.83;0.73;;;38.70;1.00;;;;;;5108947;28;20027;-47
2022/07/06 07:53:35;;;;;;;1.75;0.70;;;38.20;1.00;;;;;;5077407;28;20036;-52
2022/07/06 07:56:01;;;;;;;0.88;0.50;;;38.30;1.00;;;;;;5108731;28;20042;-51
2022/07/06 07:58:27;;;;;;;1.88;0.70;;;39.00;1.00;;;;;;5098804;28;20027;-51
2022/07/06 08:00:52;;;;;;;2.42;0.70;;;37.80;1.00;;;;;;5090462;28;20034;-50
2022/07/06 08:03:18;;;;;;;0.88;0.50;;;37.30;1.00;;;;;;5107354;28;20544;-50
2022/07/06 08:05:43;;;;;;;4.50;0.98;;;37.70;1.00;;;;;;5090212;28;20029;-51
2022/07/06 08:08:09;;;;;;;0.68;0.68;;;37.00;1.00;;;;;;5106854;28;20391;-48
2022/07/06 08:10:34;;;;;;;2.67;0.63;;;35.30;1.00;;;;;;5109937;28;20031;-46
2022/07/06 08:12:59;;;;;;;0.68;0.50;;;33.60;1.00;;;;;;5094374;28;20043;-47
2022/07/06 08:15:25;;;;;;;1.40;0.80;;;32.10;1.00;;;;;;5102316;28;20106;-47
2022/07/06 08:17:50;;;;;;;0.65;0.60;;;30.70;1.00;;;;;;5093083;28;20032;-48
2022/07/06 08:20:16;;;;;;;2.90;0.98;;;29.60;1.00;;;;;;5110048;28;20051;-47
2022/07/06 08:22:42;;;;;;;2.28;0.60;;;29.30;1.00;;;;;;5091882;28;20189;-50
2022/07/06 08:25:08;;;;;;;1.95;0.80;;;29.40;1.00;;;;;;5109868;28;20027;-52
2022/07/06 08:27:34;;;;;;;1.40;0.73;;;29.40;1.00;;;;;;5103124;28;20040;-52
2022/07/06 08:30:00;;;;;;;1.27;0.35;;;30.10;1.00;;;;;;5101619;28;20518;-48
2022/07/06 08:32:26;;;;;;;0.95;0.50;;;30.60;1.00;;;;;;5088979;28;20495;-53
2022/07/06 08:34:51;;;;;;;1.23;0.60;;;31.60;1.00;;;;;;5109635;28;20115;-50
2022/07/06 08:37:17;;;;;;;2.35;0.60;;;32.00;1.00;;;;;;5088071;28;20028;-50
2022/07/06 08:39:42;;;;;;;0.68;0.63;;;31.00;1.00;;;;;;5109618;28;20034;-51
2022/07/06 08:42:10;;;;;;;1.80;0.40;;;30.00;1.00;;;;;;5089539;28;20036;-49
2022/07/06 08:44:36;;;;;;;1.73;0.73;;;28.90;1.00;;;;;;5107140;28;20027;-52
2022/07/06 08:47:06;;;;;;;1.40;0.70;;;28.10;1.00;;;;;;5089343;28;20423;-52
2022/07/06 08:49:33;;;;;;;4.68;0.80;;;27.40;1.00;;;;;;5068650;28;20064;-49
2022/07/06 08:51:59;;;;;;;0.90;0.60;;;26.80;1.00;;;;;;5108308;28;20038;-46
2022/07/06 08:54:26;;;;;;;1.88;0.38;;;26.50;1.00;;;;;;5069522;28;20059;-47
2022/07/06 08:56:52;;;;;;;0.80;0.43;;;26.20;1.00;;;;;;5106792;28;20024;-46
2022/07/06 08:59:17;;;;;;;1.92;0.60;;;26.00;1.00;;;;;;5070406;28;20123;-47
2022/07/06 09:01:45;;;;;;;0.85;0.63;;;25.90;1.00;;;;;;5107747;28;20409;-44
2022/07/06 09:04:13;;;;;;;4.70;0.80;;;25.90;1.00;;;;;;5069629;28;20029;-44
2022/07/06 09:06:42;;;;;;;4.53;0.68;;;25.80;1.00;;;;;;5108085;28;20092;-46
2022/07/06 09:09:08;;;;;;;2.13;0.60;;;25.80;1.00;;;;;;5071540;28;20033;-45
2022/07/06 09:11:35;;;;;;;1.20;0.52;;;25.90;1.00;;;;;;5108011;28;20031;-44
2022/07/06 09:14:00;;;;;;;0.52;0.50;;;26.00;1.00;;;;;;5085827;28;20020;-45
2022/07/06 09:16:28;;;;;;;1.35;0.43;;;26.10;1.00;;;;;;5089166;28;20036;-44
2022/07/06 09:18:54;;;;;;;1.23;0.68;;;26.00;1.00;;;;;;5078683;28;20047;-46
2022/07/06 09:21:30;;;;;;;1.02;0.52;;;25.90;1.00;;;;;;5110204;28;20480;-45
2022/07/06 09:23:56;;;;;;;1.45;0.55;;;25.70;1.00;;;;;;5076792;28;20032;-45
2022/07/06 09:26:23;;;;;;;2.13;0.80;;;25.40;1.00;;;;;;5106526;28;20027;-46
2022/07/06 09:28:48;;;;;;;1.50;0.55;;;25.00;1.00;;;;;;5084121;28;20036;-44
2022/07/06 09:31:14;;;;;;;1.95;0.52;;;24.40;1.00;;;;;;5111643;28;20517;-44
2022/07/06 09:34:05;;;;;;;3.63;0.60;;;24.00;1.00;;;;;;5079394;28;20032;-44
2022/07/06 09:36:44;;;;;;;3.85;0.70;;;23.70;1.00;;;;;;5087845;28;20036;-44
2022/07/06 09:39:25;;;;;;;0.80;0.38;;;23.40;2.20;;;;;;5077818;28;20066;-49
2022/07/06 09:41:54;;;;;;;1.05;0.47;;;23.50;1.90;;;;;;5099237;28;20038;-45
2022/07/06 09:44:25;;;;;;;2.42;0.38;;;23.60;1.00;;;;;;5074684;28;20039;-46
2022/07/06 09:46:52;;;;;;;2.70;0.50;;;23.70;1.00;;;;;;5112406;28;20107;-51
2022/07/06 09:49:21;;;;;;;0.63;0.30;;;23.70;1.00;;;;;;5073811;28;20033;-44
2022/07/06 09:51:49;;;;;;;0.80;0.45;;;23.90;1.00;;;;;;5112706;28;20116;-45
2022/07/06 09:54:16;;;;;;;1.90;0.50;;;23.80;1.00;;;;;;5073745;28;20036;-49
2022/07/06 09:56:44;;;;;;;3.22;0.57;;;24.00;1.00;;;;;;5111504;28;20028;-45
2022/07/06 09:59:14;;;;;;;0.88;0.50;;;24.10;1.00;;;;;;5074371;28;20029;-49
2022/07/06 10:01:41;;;;;;;2.53;0.60;;;24.20;1.00;;;;;;5112549;28;20102;-44
2022/07/06 10:04:08;;;;;;;1.88;0.70;;;24.70;1.00;;;;;;5074914;28;20021;-47
2022/07/06 10:06:34;;;;;;;1.27;0.52;;;24.70;1.00;;;;;;5111354;28;20116;-49
2022/07/06 10:09:00;;;;;;;0.38;0.30;;;25.00;1.00;;;;;;5075793;28;20032;-46
2022/07/06 10:11:28;;;;;;;0.52;0.22;;;25.00;1.00;;;;;;5095062;28;20034;-47
2022/07/06 10:13:56;;;;;;;0.20;0.20;;;25.00;1.00;;;;;;5087570;28;20556;-44
2022/07/06 10:16:25;;;;;;;0.40;0.40;;;24.80;1.00;;;;;;5101316;28;20111;-45
2022/07/06 10:18:55;;;;;;;2.58;0.43;;;24.60;1.00;;;;;;5092287;28;20034;-47
2022/07/06 10:21:22;;;;;;;1.08;0.43;;;24.40;1.00;;;;;;5110248;28;20114;-47
2022/07/06 10:23:49;;;;;;;1.08;0.38;;;24.10;1.00;;;;;;5091714;28;20024;-51
2022/07/06 10:26:17;;;;;;;0.65;0.38;;;23.80;1.00;;;;;;5095523;28;20085;-44
2022/07/06 10:28:42;;;;;;;1.85;0.43;;;23.60;1.00;;;;;;5111427;28;20036;-51
2022/07/06 10:31:09;;;;;;;1.55;0.32;;;23.60;1.00;;;;;;5099319;28;20461;-49
2022/07/06 10:33:36;;;;;;;2.88;0.47;;;23.70;1.00;;;;;;5092086;28;20092;-49
2022/07/06 10:36:02;;;;;;;0.98;0.30;;;23.80;1.00;;;;;;5109493;28;20433;-50
2022/07/06 10:38:32;;;;;;;0.95;0.32;;;23.90;1.00;;;;;;5092160;28;20044;-49
2022/07/06 10:41:06;;;;;;;0.52;0.30;;;24.00;1.00;;;;;;5103378;28;20032;-51
2022/07/06 10:43:43;;;;;;;0.28;0.28;;;24.10;1.00;;;;;;5069903;28;20051;-49
2022/07/06 10:46:17;;;;;;;1.25;0.50;;;24.40;1.00;;;;;;5088286;28;20099;-48
2022/07/06 10:48:44;;;;;;;1.98;0.93;;;24.60;1.00;;;;;;5071315;28;20504;-52
2022/07/06 10:51:24;;;;;;;1.63;0.40;;;24.70;1.00;;;;;;5108760;28;20128;-49
2022/07/06 10:53:56;;;;;;;1.67;0.60;;;24.70;1.00;;;;;;5071181;28;20023;-52
2022/07/06 10:56:51;;;;;;;2.00;0.73;;;24.40;1.00;;;;;;5091915;28;20055;-52
2022/07/06 10:59:22;;;;;;;2.58;0.60;;;23.90;1.00;;;;;;5070196;28;20040;-46
2022/07/06 11:02:16;;;;;;;0.70;0.38;;;23.80;1.00;;;;;;5079010;28;20094;-48
2022/07/06 11:04:46;;;;;;;0.55;0.30;;;23.80;1.00;;;;;;5110496;28;20076;-46
2022/07/06 11:07:13;;;;;;;2.20;0.55;;;23.80;1.00;;;;;;5071019;28;20234;-44
2022/07/06 11:09:47;;;;;;;1.02;0.38;;;23.80;1.00;;;;;;5110749;28;20495;-45
2022/07/06 11:12:18;;;;;;;0.28;0.28;;;23.80;1.00;;;;;;5069103;28;20024;-52
2022/07/06 11:14:44;;;;;;;0.50;0.22;;;23.70;1.00;;;;;;5106479;28;20024;-49
2022/07/06 11:17:11;;;;;;;0.90;0.40;;;23.80;1.00;;;;;;5071488;27;20515;-50
2022/07/06 11:19:37;;;;;;;1.00;0.47;;;23.80;1.00;;;;;;5110436;28;20031;-44
2022/07/06 11:22:09;;;;;;;0.35;0.30;;;23.80;1.00;;;;;;5072393;28;20040;-43
2022/07/06 11:24:40;;;;;;;0.20;0.20;;;23.80;1.00;;;;;;5110265;28;20114;-43
2022/07/06 11:27:06;;;;;;;0.30;0.30;;;23.60;1.00;;;;;;5092221;28;20118;-43
2022/07/06 11:29:34;;;;;;;1.17;0.30;;;23.60;1.00;;;;;;5092106;28;20032;-46
2022/07/06 11:32:03;;;;;;;0.47;0.30;;;23.60;1.00;;;;;;5075526;28;20434;-43
2022/07/06 11:34:49;;;;;;;2.15;0.32;;;23.60;1.00;;;;;;5110798;28;20031;-47
2022/07/06 11:37:15;;;;;;;0.45;0.28;;;23.70;1.00;;;;;;5068300;28;20086;-48
2022/07/06 11:39:42;;;;;;;0.38;0.30;;;23.70;1.00;;;;;;5107680;28;20044;-52
2022/07/06 11:42:09;;;;;;;0.60;0.30;;;23.80;1.00;;;;;;5095285;28;20103;-49
2022/07/06 11:44:36;;;;;;;1.00;0.43;;;23.80;1.00;;;;;;5107483;28;20081;-51
2022/07/06 11:47:03;;;;;;;1.00;0.30;;;23.70;1.00;;;;;;5110726;28;20270;-49
2022/07/06 11:49:30;;;;;;;2.08;0.40;;;23.80;1.00;;;;;;5092948;28;20096;-44
2022/07/06 11:51:56;;;;;;;0.60;0.30;;;23.90;1.00;;;;;;5110704;28;20031;-45
2022/07/06 11:54:23;;;;;;;0.98;0.45;;;24.00;1.00;;;;;;5091931;28;20027;-43
2022/07/06 11:56:59;;;;;;;5.93;0.55;;;24.00;1.00;;;;;;5110550;28;20030;-44
2022/07/06 11:59:27;;;;;;;0.40;0.28;;;24.00;1.00;;;;;;5075593;28;20031;-43
2022/07/06 12:02:15;;;;;;;1.40;0.40;;;24.10;1.00;;;;;;5110327;28;20405;-48
2022/07/06 12:04:43;;;;;;;0.22;0.22;;;24.00;1.00;;;;;;5079551;28;20081;-43
2022/07/06 12:07:13;;;;;;;0.55;0.40;;;23.80;1.00;;;;;;5110306;28;20436;-46
2022/07/06 12:09:42;;;;;;;0.63;0.43;;;23.50;1.20;;;;;;5079164;28;20080;-43
2022/07/06 12:12:08;;;;;;;1.35;0.40;;;23.40;1.30;;;;;;5110412;28;20024;-49
2022/07/06 12:14:35;;;;;;;2.72;0.68;;;23.30;2.10;;;;;;5089133;28;20395;-43
2022/07/06 12:17:09;;;;;;;0.60;0.45;;;23.30;1.70;;;;;;5109872;28;20033;-46
2022/07/06 12:19:36;;;;;;;1.25;0.40;;;23.40;2.10;;;;;;5093083;28;20032;-47
2022/07/06 12:22:02;;;;;;;1.52;0.50;;;23.20;1.90;;;;;;5107709;28;20077;-43
2022/07/06 12:24:32;;;;;;;4.03;0.65;;;23.40;1.70;;;;;;5110287;28;20476;-44
2022/07/06 12:26:58;;;;;;;0.98;0.63;;;23.60;1.60;;;;;;5098106;28;20038;-47
2022/07/06 12:29:23;;;;;;;1.13;0.60;;;23.70;1.60;;;;;;5109647;28;20027;-48
2022/07/06 12:31:52;;;;;;;1.73;0.57;;;23.30;1.60;;;;;;5085554;28;20410;-44
2022/07/06 12:34:18;;;;;;;1.20;0.45;;;23.10;2.10;;;;;;5089881;28;20055;-45
2022/07/06 12:36:46;;;;;;;2.03;0.60;;;23.10;1.90;;;;;;5106935;28;20028;-49
2022/07/06 12:39:13;;;;;;;1.77;0.47;;;23.10;1.60;;;;;;5107684;28;20018;-51
2022/07/06 12:41:50;;;;;;;1.20;0.40;;;23.30;1.20;;;;;;5098542;28;20459;-52
2022/07/06 12:44:18;;;;;;;1.92;0.40;;;23.30;1.00;;;;;;5072278;28;20554;-45
2022/07/06 12:46:44;;;;;;;0.85;0.30;;;23.40;1.00;;;;;;5095252;28;20052;-47
2022/07/06 12:49:14;;;;;;;2.20;0.30;;;23.50;1.00;;;;;;5073939;28;20038;-46
2022/07/06 12:52:11;;;;;;;1.15;0.30;;;23.60;1.00;;;;;;5094174;28;20036;-46
2022/07/06 12:54:46;;;;;;;1.48;0.47;;;23.60;1.00;;;;;;5080967;28;20441;-44
2022/07/06 12:57:26;;;;;;;0.70;0.40;;;23.60;1.00;;;;;;5075859;28;20028;-50